createdAt,value
2023-05-16T00:01:16.622Z,66.67
2023-05-16T00:16:21.632Z,66.77
2023-05-16T00:31:24.608Z,66.94
2023-05-16T00:46:27.363Z,67.40
2023-05-16T01:01:30.564Z,67.04
2023-05-16T01:16:39.018Z,67.17
2023-05-16T01:31:41.952Z,66.73
2023-05-16T01:46:47.458Z,66.99
2023-05-16T02:01:53.727Z,67.72
2023-05-16T02:16:56.446Z,67.70
2023-05-16T02:31:59.110Z,66.90
2023-05-16T02:47:01.733Z,67.72
2023-05-16T03:02:04.925Z,67.63
2023-05-16T03:17:07.755Z,65.57
2023-05-16T03:32:11.778Z,68.09
2023-05-16T03:47:14.523Z,66.80
2023-05-16T04:02:18.897Z,63.36
2023-05-16T04:17:22.406Z,59.63
2023-05-16T04:32:25.412Z,56.95
2023-05-16T04:47:28.129Z,53.46
2023-05-16T05:02:31.150Z,49.67
2023-05-16T05:17:34.357Z,45.02
2023-05-16T05:32:37.366Z,42.81
2023-05-16T05:47:40.117Z,42.58
2023-05-16T06:02:43.056Z,42.83
2023-05-16T06:17:46.017Z,41.98
2023-05-16T06:32:49.155Z,42.08
2023-05-16T06:47:51.958Z,41.33
2023-05-16T07:02:55.022Z,41.17
2023-05-16T07:17:58.164Z,40.89
2023-05-16T07:33:01.195Z,39.71
2023-05-16T07:48:03.996Z,39.73
2023-05-16T08:03:06.985Z,37.40
2023-05-16T08:18:15.121Z,38.59
2023-05-16T08:33:17.894Z,38.50
2023-05-16T08:48:24.083Z,38.14
2023-05-16T09:03:29.071Z,37.77
2023-05-16T09:18:32.228Z,36.01
2023-05-16T09:33:35.075Z,37.36
2023-05-16T09:48:41.939Z,36.26
2023-05-16T10:03:44.855Z,36.90
2023-05-16T10:18:47.780Z,37.44
2023-05-16T10:33:50.995Z,38.13
2023-05-16T10:48:55.975Z,38.32
2023-05-16T11:04:02.652Z,39.99
2023-05-16T11:19:07.689Z,40.86
2023-05-16T11:34:11.600Z,42.31
2023-05-16T11:49:15.213Z,43.12
2023-05-16T12:04:18.296Z,43.79
2023-05-16T12:19:21.733Z,44.42
2023-05-16T12:34:28.151Z,44.60
2023-05-16T12:49:33.334Z,45.66
2023-05-16T13:04:37.148Z,46.43
2023-05-16T13:19:39.932Z,47.26
2023-05-16T13:34:42.560Z,48.28
2023-05-16T13:49:45.862Z,49.55
2023-05-16T14:04:50.030Z,49.92
2023-05-16T14:19:53.798Z,51.17
2023-05-16T14:34:56.523Z,52.69
2023-05-16T14:50:01.422Z,52.85
2023-05-16T15:05:05.267Z,53.85
2023-05-16T15:20:11.390Z,53.52
2023-05-16T15:35:14.426Z,54.02
2023-05-16T15:50:17.206Z,55.05
2023-05-16T16:05:19.867Z,56.02
2023-05-16T16:20:22.636Z,56.47
2023-05-16T16:35:26.259Z,57.01
2023-05-16T16:50:29.244Z,59.57
2023-05-16T17:05:32.091Z,58.75
2023-05-16T17:20:35.730Z,60.00
2023-05-16T17:35:42.171Z,60.20
2023-05-16T17:50:46.145Z,59.04
2023-05-16T18:05:51.088Z,59.98
2023-05-16T18:20:55.461Z,59.76
2023-05-16T18:36:01.513Z,60.39
2023-05-16T18:51:05.152Z,60.99
2023-05-16T19:06:07.778Z,62.19
2023-05-16T19:21:13.472Z,61.69
2023-05-16T19:36:17.589Z,60.51
2023-05-16T19:51:37.215Z,63.89
2023-05-16T20:06:46.613Z,62.13
2023-05-16T20:21:50.088Z,63.38
2023-05-16T20:36:52.713Z,64.47
2023-05-16T20:51:55.595Z,62.58
2023-05-16T21:06:58.355Z,64.23
2023-05-16T21:22:03.223Z,62.03
2023-05-16T21:37:07.373Z,64.04
2023-05-16T21:52:10.083Z,64.41
2023-05-16T22:07:12.785Z,64.97
2023-05-16T22:22:15.597Z,63.51
2023-05-16T22:37:18.160Z,63.71
2023-05-16T22:52:22.204Z,59.91
2023-05-16T23:07:25.368Z,59.93
2023-05-16T23:22:28.042Z,63.39
2023-05-16T23:37:31.058Z,64.47
2023-05-16T23:52:34.261Z,61.68
